Bookmark and Share
Track history (hours):
 

Minerva Concert

Last reported at 2014-Apr-20 00:33 UTC. Time now 2014-Apr-20 00:52 UTC.
Position N 54°49' E 013°05'.

Length 241 m; draft 12.4 m.

Type: Ship (hazmat cat A). MMSI: 240110000.

NotesDate/timePositionNaut miles runAvg speedWind from/ knotsBaromVisibWave heightAir tempDewpointWater temp
2014-Apr-20 00:33N 54°49' E 013°05'1111.5
2014-Apr-19 23:33N 54°45' E 012°46'1111.5
2014-Apr-19 22:33N 54°40' E 012°28'8 8.5
2014-Apr-19 21:33N 54°34' E 012°17'1010.0
2014-Apr-19 20:33N 54°25' E 012°10'1111.0
2014-Apr-19 19:33N 54°25' E 011°51'1111.1
2014-Apr-19 18:33N 54°29' E 011°33'1211.6
2014-Apr-19 17:33N 54°34' E 011°15'1411.6
2014-Apr-19 16:19N 54°39' E 010°51'2810.1
2014-Apr-19 13:33N 55°06' E 010°59'66 9.4
2014-Apr-19 06:31N 56°11' E 011°17'3511.7
2014-Apr-19 03:33N 56°42' E 011°47'1110.9
2014-Apr-19 02:32N 56°53' E 011°47'1211.7
2014-Apr-19 01:33N 57°04' E 011°40'1111.2
2014-Apr-19 00:33N 57°14' E 011°32'1211.7
2014-Apr-18 23:33N 57°25' E 011°24'1211.6
2014-Apr-18 22:33N 57°34' E 011°10'1211.8
2014-Apr-18 21:33N 57°41' E 010°53'1010.4
2014-Apr-18 20:33N 57°47' E 010°37'1211.6
2014-Apr-18 19:33N 57°46' E 010°15'1212.3
2014-Apr-18 18:33N 57°45' E 009°52'1212.2
2014-Apr-18 17:33N 57°44' E 009°29'1212.4
2014-Apr-18 16:33N 57°43' E 009°06'  

Dump ship's entire track history

sailing weather and tide predictions

Minerva Concert — SVWC — position and weather